createdAt,value
2023-01-07T00:00:54.498Z,118.25
2023-01-07T00:03:37.264Z,117.97
2023-01-07T00:06:28.511Z,122.13
2023-01-07T00:09:13.255Z,116.43
2023-01-07T00:12:08.117Z,124.43
2023-01-07T00:14:56.534Z,121.72
2023-01-07T00:17:38.251Z,124.55
2023-01-07T00:20:26.514Z,124.18
2023-01-07T00:23:08.697Z,127.53
2023-01-07T00:25:56.601Z,130.70
2023-01-07T00:28:39.277Z,134.27
2023-01-07T00:31:31.639Z,133.43
2023-01-07T00:34:15.244Z,136.73
2023-01-07T00:37:24.194Z,137.77
2023-01-07T00:40:13.138Z,143.50
2023-01-07T00:43:17.212Z,140.40
2023-01-07T00:46:06.242Z,140.77
2023-01-07T00:48:48.561Z,141.32
2023-01-07T00:51:38.292Z,146.48
2023-01-07T00:54:30.248Z,140.73
2023-01-07T00:57:21.109Z,143.38
2023-01-07T01:00:03.584Z,146.88
2023-01-07T01:02:52.283Z,146.93
2023-01-07T01:05:34.540Z,140.73
2023-01-07T01:08:23.122Z,140.20
2023-01-07T01:11:14.592Z,142.73
2023-01-07T01:14:03.273Z,143.55
2023-01-07T01:16:53.302Z,142.32
2023-01-07T01:19:41.631Z,141.45
2023-01-07T01:22:27.178Z,147.68
2023-01-07T01:25:10.248Z,146.00
2023-01-07T01:27:59.309Z,143.60
2023-01-07T01:30:41.440Z,142.38
2023-01-07T01:33:30.146Z,141.48
2023-01-07T01:36:20.609Z,140.90
2023-01-07T01:39:06.129Z,138.80
2023-01-07T01:45:00.269Z,132.38
2023-01-07T01:48:00.249Z,132.93
2023-01-07T01:51:01.227Z,124.18
2023-01-07T01:53:43.884Z,122.63
2023-01-07T01:56:45.133Z,113.00
2023-01-07T01:59:39.244Z,117.85
2023-01-07T02:02:27.504Z,115.25
2023-01-07T02:05:16.254Z,110.30
2023-01-07T02:08:05.203Z,107.05
2023-01-07T02:11:10.177Z,101.88
2023-01-07T02:14:10.288Z,104.15
2023-01-07T02:17:07.469Z,98.72
2023-01-07T02:20:27.143Z,98.68
2023-01-07T02:23:16.232Z,100.22
2023-01-07T02:26:17.525Z,99.82
2023-01-07T02:29:30.127Z,102.95
2023-01-07T02:32:21.512Z,106.00
2023-01-07T02:35:18.222Z,107.93
2023-01-07T02:38:14.072Z,109.85
2023-01-07T02:41:28.073Z,105.72
2023-01-07T02:44:37.116Z,103.07
2023-01-07T02:47:28.136Z,106.03
2023-01-07T02:50:17.534Z,107.00
2023-01-07T02:52:59.194Z,109.68
2023-01-07T02:56:27.067Z,108.32
2023-01-07T02:59:51.055Z,108.53
2023-01-07T03:02:43.159Z,109.35
2023-01-07T03:06:08.595Z,109.78
2023-01-07T03:08:51.176Z,112.50
2023-01-07T03:11:52.527Z,112.13
2023-01-07T03:14:50.107Z,116.93
2023-01-07T03:17:55.475Z,117.22
2023-01-07T03:20:42.246Z,123.72
2023-01-07T03:23:27.874Z,124.13
2023-01-07T03:26:20.217Z,121.18
2023-01-07T03:29:06.286Z,124.43
2023-01-07T03:32:05.191Z,123.88
2023-01-07T03:34:54.557Z,123.85
2023-01-07T03:37:39.059Z,122.10
2023-01-07T03:40:29.168Z,121.57
2023-01-07T03:43:22.507Z,126.22
2023-01-07T03:46:07.392Z,123.93
2023-01-07T03:48:55.483Z,121.05
2023-01-07T03:51:39.280Z,115.88
2023-01-07T03:54:28.443Z,124.73
2023-01-07T03:57:11.169Z,119.30
2023-01-07T04:00:00.148Z,120.03
2023-01-07T04:02:57.198Z,111.35
2023-01-07T04:05:44.453Z,110.95
2023-01-07T04:08:34.254Z,111.43
2023-01-07T04:11:22.498Z,111.38
2023-01-07T04:14:08.133Z,108.25
2023-01-07T04:17:01.238Z,103.65
2023-01-07T04:19:43.519Z,102.88
2023-01-07T04:22:32.160Z,105.13
2023-01-07T04:25:23.195Z,100.22
2023-01-07T04:28:12.066Z,90.22
2023-01-07T04:31:01.273Z,88.90
2023-01-07T04:33:45.376Z,87.03
2023-01-07T04:39:27.356Z,83.22
2023-01-07T04:42:15.571Z,86.63
2023-01-07T04:44:58.135Z,87.10
2023-01-07T04:47:47.171Z,87.18
2023-01-07T04:50:36.199Z,81.55
2023-01-07T04:53:24.419Z,80.63
2023-01-07T04:56:06.245Z,83.60
2023-01-07T04:58:55.191Z,83.03
2023-01-07T05:01:44.282Z,79.82
2023-01-07T05:04:26.392Z,79.32
2023-01-07T05:07:15.173Z,79.03
2023-01-07T05:09:57.355Z,82.68
2023-01-07T05:12:53.090Z,82.22
2023-01-07T05:15:42.107Z,81.97
2023-01-07T05:18:25.493Z,81.70
2023-01-07T05:21:14.219Z,84.88
2023-01-07T05:23:56.508Z,84.50
2023-01-07T05:26:45.245Z,84.88
2023-01-07T05:29:35.106Z,89.50
2023-01-07T05:32:24.139Z,80.72
2023-01-07T05:35:06.492Z,85.30
2023-01-07T05:37:56.123Z,81.72
2023-01-07T05:40:46.963Z,86.68
2023-01-07T05:43:40.495Z,88.70
2023-01-07T05:46:22.147Z,90.82
2023-01-07T05:49:11.511Z,88.18
2023-01-07T05:51:54.181Z,91.63
2023-01-07T05:54:36.500Z,91.07
2023-01-07T05:57:25.042Z,90.68
2023-01-07T06:00:08.086Z,87.35
2023-01-07T06:02:57.235Z,88.63
2023-01-07T06:05:45.598Z,94.22
2023-01-07T06:08:28.138Z,96.65
2023-01-07T06:11:10.443Z,101.57
2023-01-07T06:13:59.220Z,98.30
2023-01-07T06:16:49.637Z,104.00
2023-01-07T06:19:32.061Z,101.97
2023-01-07T06:22:21.319Z,109.07
2023-01-07T06:25:03.544Z,105.22
2023-01-07T06:27:52.136Z,110.43
2023-01-07T06:30:34.549Z,109.53
2023-01-07T06:33:25.051Z,109.32
2023-01-07T06:36:07.393Z,112.45
2023-01-07T06:38:56.080Z,111.45
2023-01-07T06:41:50.986Z,122.45
2023-01-07T06:44:40.080Z,122.78
2023-01-07T06:47:22.474Z,122.47
2023-01-07T06:50:11.102Z,124.13
2023-01-07T06:52:54.019Z,128.02
2023-01-07T06:55:43.217Z,135.10
2023-01-07T06:58:26.546Z,133.52
2023-01-07T07:01:16.264Z,135.73
2023-01-07T07:03:58.588Z,135.18
2023-01-07T07:06:47.227Z,135.80
2023-01-07T07:09:29.603Z,132.77
2023-01-07T07:12:19.225Z,134.57
2023-01-07T07:15:01.513Z,131.15
2023-01-07T07:17:50.284Z,136.07
2023-01-07T07:20:39.134Z,136.60
2023-01-07T07:23:21.444Z,139.07
2023-01-07T07:26:10.123Z,139.23
2023-01-07T07:28:58.458Z,138.55
2023-01-07T07:31:40.269Z,141.30
2023-01-07T07:34:29.180Z,143.73
2023-01-07T07:37:11.401Z,142.13
2023-01-07T07:40:00.248Z,145.25
2023-01-07T07:43:10.577Z,142.38
2023-01-07T07:45:51.167Z,147.35
2023-01-07T07:48:40.606Z,144.88
2023-01-07T07:51:22.219Z,148.65
2023-01-07T07:54:10.395Z,145.38
2023-01-07T07:56:52.124Z,150.57
2023-01-07T07:59:40.416Z,146.27
2023-01-07T08:02:23.253Z,147.60
2023-01-07T08:05:05.618Z,153.15
2023-01-07T08:07:54.218Z,153.82
2023-01-07T08:10:36.945Z,157.05
2023-01-07T08:13:27.088Z,151.32
2023-01-07T08:16:16.215Z,153.60
2023-01-07T08:19:05.157Z,162.73
2023-01-07T08:21:54.065Z,154.43
2023-01-07T08:24:37.092Z,154.25
2023-01-07T08:27:26.149Z,152.65
2023-01-07T08:30:15.043Z,154.13
2023-01-07T08:33:09.058Z,151.05
2023-01-07T08:35:52.541Z,149.45
2023-01-07T08:38:41.320Z,151.13
2023-01-07T08:41:37.959Z,147.63
2023-01-07T08:44:27.156Z,147.90
2023-01-07T08:47:09.560Z,141.10
2023-01-07T08:49:58.165Z,145.82
2023-01-07T08:52:42.004Z,137.70
2023-01-07T08:55:31.515Z,140.07
2023-01-07T08:58:13.510Z,134.68
2023-01-07T09:01:02.292Z,138.93
2023-01-07T09:03:44.607Z,137.90
2023-01-07T09:06:33.042Z,132.30
2023-01-07T09:09:17.618Z,132.25
2023-01-07T09:12:06.098Z,132.68
2023-01-07T09:14:48.424Z,128.80
2023-01-07T09:17:37.058Z,127.80
2023-01-07T09:20:19.589Z,126.35
2023-01-07T09:23:08.093Z,124.07
2023-01-07T09:25:50.488Z,124.85
2023-01-07T09:28:39.191Z,129.38
2023-01-07T09:31:21.423Z,121.82
2023-01-07T09:34:11.181Z,125.07
2023-01-07T09:36:53.456Z,120.55
2023-01-07T09:39:42.167Z,120.15
2023-01-07T09:42:39.443Z,120.93
2023-01-07T09:45:27.203Z,122.15
2023-01-07T09:48:24.957Z,120.82
2023-01-07T09:51:23.237Z,119.60
2023-01-07T09:54:22.968Z,120.05
2023-01-07T09:57:12.097Z,117.25
2023-01-07T09:59:54.325Z,117.32
2023-01-07T10:02:59.129Z,118.78
2023-01-07T10:06:02.707Z,114.82
2023-01-07T10:08:47.103Z,114.70
2023-01-07T10:12:08.100Z,112.57
2023-01-07T10:15:10.661Z,108.97
2023-01-07T10:18:10.463Z,109.00
2023-01-07T10:21:14.063Z,107.43
2023-01-07T10:24:11.142Z,109.30
2023-01-07T10:26:57.859Z,100.47
2023-01-07T10:30:03.050Z,99.38
2023-01-07T10:32:56.847Z,101.40
2023-01-07T10:35:45.292Z,101.15
2023-01-07T10:38:53.002Z,99.72
2023-01-07T10:42:29.033Z,101.03
2023-01-07T10:45:25.502Z,100.63
2023-01-07T10:48:41.133Z,98.88
2023-01-07T10:52:02.551Z,98.25
2023-01-07T10:55:13.124Z,90.28
2023-01-07T10:58:03.048Z,101.47
2023-01-07T11:00:55.489Z,95.72
2023-01-07T11:03:38.194Z,97.70
2023-01-07T11:06:27.364Z,95.82
2023-01-07T11:09:19.186Z,92.53
2023-01-07T11:12:06.667Z,91.25
2023-01-07T11:14:55.989Z,94.07
2023-01-07T11:17:57.121Z,92.00
2023-01-07T11:21:43.191Z,88.57
2023-01-07T11:24:35.595Z,89.65
2023-01-07T11:27:26.127Z,86.28
2023-01-07T11:30:28.123Z,80.20
2023-01-07T11:33:22.134Z,80.57
2023-01-07T11:36:05.604Z,78.97
2023-01-07T11:38:55.181Z,76.13
2023-01-07T11:41:50.030Z,74.95
2023-01-07T11:44:39.174Z,70.13
2023-01-07T11:47:25.392Z,71.28
2023-01-07T11:50:17.173Z,73.70
2023-01-07T11:53:09.447Z,70.32
2023-01-07T11:56:09.079Z,69.63
2023-01-07T11:58:54.626Z,72.00
2023-01-07T12:01:54.515Z,73.63
2023-01-07T12:04:42.409Z,73.47
2023-01-07T12:07:32.051Z,74.63
2023-01-07T12:10:33.465Z,73.90
2023-01-07T12:13:33.175Z,73.00
2023-01-07T12:16:23.046Z,77.03
2023-01-07T12:19:50.091Z,73.60
2023-01-07T12:22:58.444Z,78.15
2023-01-07T12:26:13.003Z,74.38
2023-01-07T12:29:23.135Z,74.05
2023-01-07T12:32:40.123Z,78.97
2023-01-07T12:35:32.108Z,89.43
2023-01-07T12:38:26.505Z,90.32
2023-01-07T12:41:28.071Z,84.57
2023-01-07T12:44:20.474Z,79.63
2023-01-07T12:47:32.077Z,80.35
2023-01-07T12:50:37.215Z,81.32
2023-01-07T12:53:33.074Z,84.20
2023-01-07T12:56:46.110Z,85.70
2023-01-07T12:59:52.597Z,86.68
2023-01-07T13:03:02.168Z,89.10
2023-01-07T13:06:06.961Z,85.00
2023-01-07T13:09:06.067Z,89.05
2023-01-07T13:12:40.537Z,89.68
2023-01-07T13:15:41.129Z,88.47
2023-01-07T13:18:25.684Z,89.78
2023-01-07T13:21:19.127Z,92.90
2023-01-07T13:24:13.556Z,92.50
2023-01-07T13:27:47.014Z,95.63
2023-01-07T13:31:11.148Z,98.68
2023-01-07T13:34:12.424Z,98.13
2023-01-07T13:37:08.169Z,96.65
2023-01-07T13:40:07.779Z,98.55
2023-01-07T13:43:07.234Z,95.63
2023-01-07T13:46:04.715Z,102.00
2023-01-07T13:48:56.152Z,103.50
2023-01-07T13:51:46.557Z,100.45
2023-01-07T13:55:01.003Z,99.07
2023-01-07T13:57:52.218Z,96.38
2023-01-07T14:00:53.558Z,101.50
2023-01-07T14:04:01.192Z,100.72
2023-01-07T14:06:58.546Z,102.55
2023-01-07T14:09:49.390Z,98.47
2023-01-07T14:13:03.554Z,97.57
2023-01-07T14:16:01.111Z,102.03
2023-01-07T14:18:52.922Z,97.20
2023-01-07T14:22:09.162Z,103.65
2023-01-07T14:24:57.555Z,104.72
2023-01-07T14:28:23.170Z,102.18
2023-01-07T14:31:06.383Z,101.88
2023-01-07T14:34:01.200Z,104.75
2023-01-07T14:37:10.045Z,104.93
2023-01-07T14:39:59.047Z,105.03
2023-01-07T14:42:52.784Z,106.82
2023-01-07T14:45:45.016Z,103.18
2023-01-07T14:48:41.469Z,104.75
2023-01-07T14:51:42.124Z,111.45
2023-01-07T14:54:39.107Z,106.43
2023-01-07T14:57:51.395Z,107.28
2023-01-07T15:01:13.283Z,109.18
2023-01-07T15:04:30.837Z,108.13
2023-01-07T15:07:25.143Z,109.30
2023-01-07T15:10:51.509Z,111.13
2023-01-07T15:13:52.108Z,108.97
2023-01-07T15:16:38.925Z,105.55
2023-01-07T15:19:22.657Z,112.07
2023-01-07T15:22:32.440Z,108.22
2023-01-07T15:25:52.112Z,108.55
2023-01-07T15:28:34.591Z,111.28
2023-01-07T15:31:38.054Z,109.35
2023-01-07T15:34:24.557Z,112.45
2023-01-07T15:37:13.995Z,111.22
2023-01-07T15:40:02.438Z,109.07
2023-01-07T15:42:52.954Z,114.15
2023-01-07T15:45:36.367Z,111.50
2023-01-07T15:48:25.107Z,109.75
2023-01-07T15:51:14.048Z,111.88
2023-01-07T15:53:57.179Z,111.43
2023-01-07T15:56:46.115Z,114.03
2023-01-07T15:59:32.242Z,114.40
2023-01-07T16:02:40.022Z,111.68
2023-01-07T16:05:29.520Z,112.90
2023-01-07T16:08:12.142Z,113.65
2023-01-07T16:11:11.396Z,116.68
2023-01-07T16:14:04.056Z,116.95
2023-01-07T16:16:46.547Z,117.33
2023-01-07T16:19:36.038Z,118.53
2023-01-07T16:22:29.378Z,119.60
2023-01-07T16:25:17.073Z,121.53
2023-01-07T16:28:06.676Z,117.35
2023-01-07T16:30:51.054Z,117.65
2023-01-07T16:33:41.315Z,122.90
2023-01-07T16:36:28.042Z,116.20
2023-01-07T16:39:37.096Z,119.75
2023-01-07T16:42:34.927Z,120.80
2023-01-07T16:45:36.022Z,120.63
2023-01-07T16:48:29.312Z,120.30
2023-01-07T16:51:44.096Z,125.25
2023-01-07T16:54:35.632Z,119.75
2023-01-07T16:57:24.207Z,120.50
2023-01-07T17:00:09.398Z,124.18
2023-01-07T17:03:06.983Z,124.38
2023-01-07T17:05:56.125Z,122.35
2023-01-07T17:08:38.442Z,121.97
2023-01-07T17:11:38.070Z,118.13
2023-01-07T17:14:38.035Z,127.22
2023-01-07T17:17:33.024Z,124.38
2023-01-07T17:20:25.561Z,118.45
2023-01-07T17:23:08.298Z,121.20
2023-01-07T17:25:57.535Z,124.03
2023-01-07T17:28:44.022Z,119.78
2023-01-07T17:31:26.594Z,122.40
2023-01-07T17:34:14.928Z,119.78
2023-01-07T17:37:05.107Z,117.22
2023-01-07T17:39:48.285Z,118.95
2023-01-07T17:43:06.995Z,112.22
2023-01-07T17:45:56.439Z,110.50
2023-01-07T17:48:38.966Z,110.55
2023-01-07T17:51:29.154Z,108.95
2023-01-07T17:54:11.363Z,107.22
2023-01-07T17:57:00.033Z,105.60
2023-01-07T17:59:48.279Z,104.55
2023-01-07T18:02:38.164Z,108.38
2023-01-07T18:05:28.663Z,111.32
2023-01-07T18:08:19.029Z,107.80
2023-01-07T18:11:21.113Z,111.70
2023-01-07T18:14:10.179Z,110.57
2023-01-07T18:16:53.662Z,111.63
2023-01-07T18:19:43.127Z,115.93
2023-01-07T18:22:26.781Z,115.70
2023-01-07T18:25:24.375Z,112.85
2023-01-07T18:28:06.890Z,112.32
2023-01-07T18:30:57.287Z,115.22
2023-01-07T18:33:39.789Z,115.47
2023-01-07T18:36:29.368Z,112.15
2023-01-07T18:39:13.663Z,115.45
2023-01-07T18:42:02.996Z,115.95
2023-01-07T18:44:58.264Z,114.97
2023-01-07T18:47:40.512Z,113.00
2023-01-07T18:50:32.239Z,112.88
2023-01-07T18:53:22.001Z,111.97
2023-01-07T18:56:12.960Z,117.90
2023-01-07T18:59:03.004Z,119.15
2023-01-07T19:01:52.091Z,119.97
2023-01-07T19:04:45.145Z,120.97
2023-01-07T19:07:28.509Z,123.50
2023-01-07T19:10:18.382Z,131.40
2023-01-07T19:13:01.607Z,130.05
2023-01-07T19:15:50.971Z,133.93
2023-01-07T19:18:40.299Z,133.73
2023-01-07T19:21:29.109Z,134.27
2023-01-07T19:24:11.837Z,135.25
2023-01-07T19:27:01.188Z,143.75
2023-01-07T19:29:44.350Z,138.32
2023-01-07T19:32:33.001Z,142.85
2023-01-07T19:35:16.919Z,143.23
2023-01-07T19:38:06.247Z,141.82
2023-01-07T19:41:01.059Z,138.18
2023-01-07T19:43:59.903Z,131.27
2023-01-07T19:46:50.212Z,132.25
2023-01-07T19:49:32.709Z,129.50
2023-01-07T19:52:21.938Z,128.80
2023-01-07T19:55:04.576Z,129.85
2023-01-07T19:57:54.145Z,123.25
2023-01-07T20:00:44.569Z,123.13
2023-01-07T20:03:33.037Z,125.88
2023-01-07T20:06:25.606Z,125.10
2023-01-07T20:09:19.158Z,144.80
2023-01-07T20:12:01.715Z,155.65
2023-01-07T20:14:53.043Z,158.32
2023-01-07T20:17:35.304Z,156.93
2023-01-07T20:20:24.115Z,165.52
2023-01-07T20:23:07.375Z,177.30
2023-01-07T20:25:56.089Z,171.55
2023-01-07T20:28:38.635Z,171.88
2023-01-07T20:31:30.406Z,174.05
2023-01-07T20:34:12.397Z,171.00
2023-01-07T20:37:01.970Z,169.57
2023-01-07T20:39:44.347Z,164.55
2023-01-07T20:42:33.100Z,162.85
2023-01-07T20:45:22.339Z,161.20
2023-01-07T20:48:06.011Z,164.25
2023-01-07T20:50:55.005Z,155.35
2023-01-07T20:53:37.332Z,149.68
2023-01-07T20:56:29.074Z,150.18
2023-01-07T20:59:13.515Z,148.43
2023-01-07T21:02:02.131Z,146.50
2023-01-07T21:04:44.312Z,145.40
2023-01-07T21:07:33.030Z,147.38
2023-01-07T21:10:15.363Z,140.00
2023-01-07T21:13:04.024Z,135.70
2023-01-07T21:15:52.887Z,140.15
2023-01-07T21:18:35.379Z,136.30
2023-01-07T21:21:27.011Z,138.23
2023-01-07T21:24:18.047Z,137.07
2023-01-07T21:26:59.928Z,138.60
2023-01-07T21:29:49.257Z,138.73
2023-01-07T21:32:30.972Z,133.45
2023-01-07T21:35:13.806Z,139.38
2023-01-07T21:38:03.072Z,136.20
2023-01-07T21:40:51.972Z,134.73
2023-01-07T21:43:46.865Z,138.93
2023-01-07T21:46:36.061Z,137.65
2023-01-07T21:49:20.166Z,134.95
2023-01-07T21:52:09.072Z,140.13
2023-01-07T21:54:52.983Z,137.20
2023-01-07T21:57:47.025Z,134.82
2023-01-07T22:00:29.285Z,137.02
2023-01-07T22:03:18.054Z,138.32
2023-01-07T22:06:36.024Z,139.25
2023-01-07T22:09:18.259Z,137.23
2023-01-07T22:12:06.915Z,140.85
2023-01-07T22:14:49.175Z,139.70
2023-01-07T22:17:38.067Z,134.65
2023-01-07T22:20:20.293Z,136.45
2023-01-07T22:23:08.994Z,138.55
2023-01-07T22:25:57.913Z,136.48
2023-01-07T22:28:48.035Z,133.30
2023-01-07T22:31:41.528Z,138.50
2023-01-07T22:34:23.852Z,143.80
2023-01-07T22:37:27.827Z,146.38
2023-01-07T22:40:14.041Z,134.23
2023-01-07T22:43:15.866Z,138.90
2023-01-07T22:46:11.057Z,136.10
2023-01-07T22:48:59.909Z,135.23
2023-01-07T22:51:54.911Z,133.40
2023-01-07T22:54:39.230Z,132.50
2023-01-07T22:57:29.715Z,136.25
2023-01-07T23:00:14.287Z,135.77
2023-01-07T23:03:03.019Z,132.70
2023-01-07T23:05:45.291Z,133.38
2023-01-07T23:08:34.046Z,133.00
2023-01-07T23:11:36.206Z,134.32
2023-01-07T23:14:27.941Z,140.98
2023-01-07T23:17:11.752Z,136.02
2023-01-07T23:20:00.862Z,137.70
2023-01-07T23:22:43.225Z,139.05
2023-01-07T23:25:31.985Z,138.20
2023-01-07T23:28:14.323Z,134.90
2023-01-07T23:31:02.861Z,139.52
2023-01-07T23:33:45.381Z,140.02
2023-01-07T23:36:34.045Z,131.77
2023-01-07T23:39:22.968Z,134.15
2023-01-07T23:42:11.916Z,135.75
2023-01-07T23:45:07.046Z,133.55
2023-01-07T23:47:55.967Z,133.38
2023-01-07T23:50:38.256Z,139.65
2023-01-07T23:53:27.032Z,139.30
2023-01-07T23:56:09.271Z,133.43
2023-01-07T23:58:57.987Z,141.80
